Alexandria, LA

10:21 AM CDT on July 04, 2015 (GMT -0500)
Cherokee Village | | Change Station
CLOSE
Current Station
Personal Weather Station
Location: Alexandria, LA
Elevation: 77 ft
Nearby Weather Stations

Elev 77 ft 31.26 °N, 92.48 °W | Updated 29 seconds ago

Mostly Cloudy
Mostly Cloudy
85.5 °F
Feels Like 96 °F
N
2.0
Wind Variable Wind from South
Gusts 2.5 mph

Today
High -- | Low -- °F
--% Chance of Precip.
Yesterday
High -- | Low -- °F
Precip. -- in
6:10 AM 8:17 PM
Waning Gibbous, 92% visible
Pressure 30.04 in
Visibility 9.0 miles
Clouds Mostly Cloudy 11000 ft
Heat Index 96 °F
Dew Point 77 °F
Humidity 76%
Rainfall 0.00 in
Snow Depth Not available.
UV 4.0 out of 12
Pollen .50 out of 12
Air Quality Not available.
Flu Activity Not available.
METAR KAEX 041453Z AUTO 22008KT 9SM BKN110 28/24 A3003 RMK AO2 SLP170 T02780244 53008

More Conditions Fewer Conditions

Pressure 30.04 in
Visibility 9.0 miles
Clouds Mostly Cloudy 11000 ft
Heat Index 96 °F
Dew Point 77 °F
Humidity 76%
Rainfall 0.00 in
Snow Depth Not available.
UV 4.0 out of 12
Pollen .50 out of 12
Air Quality Not available.
Flu Activity Not available.
METAR KAEX 041453Z AUTO 22008KT 9SM BKN110 28/24 A3003 RMK AO2 SLP170 T02780244 53008

More Conditions Fewer Conditions

10-Day Weather Forecast

×

Almanac

Astronomy

Jul. 04, 2015 Rise Set
Actual Time
Civil Twilight
Nautical Twilight
Astronomical Twilight
Moon
Length of Visible Light
Length of Day
Tomorrow will be .
, % of the Moon is Illuminated

Today's Extremes

State Highs State Lows

Community

WunderPhotos

Upload Photos

1,834,986 photos uploaded!

WunderBlogs® & News

Nearby

Air Quality

  Air Quality AQ Index Pollutant
Not available.

Snow Depth

Station Depth Elevation

Earthquake Activity

City Distance Mag. Time & Date
Minimum magnitude displayed is 2.5.

Coastal Water Temperatures

Place Temperature

Stations

Nearby Weather Stations

Station Location Temp. Windchill Dew Point Humidity Wind Precip. Elev Updated Type